createdAt,value
2023-02-23T00:00:39.941Z,15.43
2023-02-23T00:03:08.957Z,13.80
2023-02-23T00:05:38.402Z,15.02
2023-02-23T00:08:08.289Z,11.63
2023-02-23T00:10:36.604Z,13.68
2023-02-23T00:13:05.099Z,12.65
2023-02-23T00:15:33.776Z,13.00
2023-02-23T00:18:04.659Z,13.50
2023-02-23T00:20:32.990Z,13.57
2023-02-23T00:23:01.384Z,15.02
2023-02-23T00:25:31.905Z,15.13
2023-02-23T00:28:00.203Z,15.13
2023-02-23T00:30:29.613Z,13.63
2023-02-23T00:32:58.045Z,13.57
2023-02-23T00:35:26.451Z,13.48
2023-02-23T00:37:54.878Z,13.32
2023-02-23T00:40:24.639Z,12.15
2023-02-23T00:42:55.324Z,13.20
2023-02-23T00:45:23.676Z,16.33
2023-02-23T00:47:52.267Z,14.27
2023-02-23T00:50:20.702Z,13.30
2023-02-23T00:52:49.090Z,15.68
2023-02-23T00:55:18.012Z,11.55
2023-02-23T00:57:47.213Z,15.05
2023-02-23T01:00:20.923Z,13.18
2023-02-23T01:02:49.761Z,18.05
2023-02-23T01:05:18.174Z,17.98
2023-02-23T01:07:47.488Z,17.45
2023-02-23T01:10:21.790Z,13.63
2023-02-23T01:12:50.506Z,13.30
2023-02-23T01:15:21.308Z,15.70
2023-02-23T01:17:49.925Z,15.10
2023-02-23T01:20:19.401Z,13.45
2023-02-23T01:22:48.601Z,15.95
2023-02-23T01:25:17.056Z,14.60
2023-02-23T01:27:45.697Z,17.95
2023-02-23T01:30:15.534Z,16.75
2023-02-23T01:32:45.195Z,16.65
2023-02-23T01:35:14.030Z,19.10
2023-02-23T01:37:43.437Z,17.25
2023-02-23T01:40:15.110Z,19.60
2023-02-23T01:42:44.664Z,17.23
2023-02-23T01:45:21.757Z,13.80
2023-02-23T01:47:52.319Z,17.20
2023-02-23T01:50:21.221Z,17.95
2023-02-23T01:52:51.182Z,16.17
2023-02-23T01:55:23.908Z,16.60
2023-02-23T01:57:55.309Z,16.55
2023-02-23T02:00:25.948Z,17.20
2023-02-23T02:02:55.958Z,18.50
2023-02-23T02:05:24.623Z,15.55
2023-02-23T02:07:59.084Z,13.88
2023-02-23T02:10:40.588Z,14.95
2023-02-23T02:13:10.533Z,18.10
2023-02-23T02:15:42.987Z,21.35
2023-02-23T02:18:18.674Z,19.85
2023-02-23T02:21:11.624Z,18.05
2023-02-23T02:23:55.430Z,21.92
2023-02-23T02:26:27.563Z,20.73
2023-02-23T02:29:10.100Z,19.35
2023-02-23T02:31:58.780Z,16.30
2023-02-23T02:34:33.905Z,17.92
2023-02-23T02:37:10.085Z,19.67
2023-02-23T02:39:44.840Z,16.92
2023-02-23T02:42:19.041Z,16.80
2023-02-23T02:44:52.259Z,16.40
2023-02-23T02:47:22.807Z,16.58
2023-02-23T02:49:54.052Z,18.50
2023-02-23T02:52:26.163Z,14.20
2023-02-23T02:54:56.468Z,16.45
2023-02-23T02:57:26.760Z,16.35
2023-02-23T03:00:12.937Z,16.90
2023-02-23T03:02:59.987Z,15.57
2023-02-23T03:05:48.672Z,16.13
2023-02-23T03:08:40.429Z,14.77
2023-02-23T03:11:27.612Z,17.15
2023-02-23T03:14:21.615Z,14.30
2023-02-23T03:17:12.407Z,16.23
2023-02-23T03:20:02.903Z,15.18
2023-02-23T03:22:52.054Z,17.63
2023-02-23T03:25:41.076Z,19.95
2023-02-23T03:28:31.241Z,18.40
2023-02-23T03:31:22.074Z,18.27
2023-02-23T03:34:12.761Z,19.45
2023-02-23T03:37:01.371Z,17.42
2023-02-23T03:39:51.954Z,19.77
2023-02-23T03:42:40.701Z,17.73
2023-02-23T03:45:28.640Z,16.95
2023-02-23T03:48:14.991Z,20.73
2023-02-23T03:51:03.204Z,18.95
2023-02-23T03:53:52.861Z,19.70
2023-02-23T03:56:40.826Z,18.92
2023-02-23T03:59:29.975Z,19.30
2023-02-23T04:02:16.256Z,20.60
2023-02-23T04:05:03.073Z,20.90
2023-02-23T04:07:49.517Z,15.48
2023-02-23T04:10:36.157Z,18.50
2023-02-23T04:13:15.046Z,17.00
2023-02-23T04:15:46.778Z,19.42
2023-02-23T04:18:16.025Z,20.17
2023-02-23T04:20:44.429Z,16.95
2023-02-23T04:23:12.820Z,18.77
2023-02-23T04:25:41.165Z,19.33
2023-02-23T04:28:09.462Z,20.83
2023-02-23T04:30:37.987Z,25.98
2023-02-23T04:33:07.647Z,19.38
2023-02-23T04:35:36.227Z,22.20
2023-02-23T04:38:04.524Z,19.40
2023-02-23T04:40:33.030Z,18.35
2023-02-23T04:43:01.329Z,19.65
2023-02-23T04:45:29.681Z,18.90
2023-02-23T04:47:57.968Z,16.88
2023-02-23T04:50:27.598Z,18.23
2023-02-23T04:52:56.764Z,18.17
2023-02-23T04:55:26.444Z,17.42
2023-02-23T04:57:59.077Z,19.20
2023-02-23T05:00:27.635Z,21.80
2023-02-23T05:02:55.998Z,19.13
2023-02-23T05:05:24.291Z,19.40
2023-02-23T05:07:55.126Z,19.42
2023-02-23T05:10:23.507Z,19.00
2023-02-23T05:12:51.937Z,18.80
2023-02-23T05:15:20.387Z,21.65
2023-02-23T05:17:49.109Z,17.88
2023-02-23T05:20:17.523Z,18.90
2023-02-23T05:22:45.869Z,19.65
2023-02-23T05:25:15.785Z,17.27
2023-02-23T05:27:44.101Z,18.98
2023-02-23T05:30:13.570Z,19.77
2023-02-23T05:32:41.922Z,18.95
2023-02-23T05:35:10.646Z,18.27
2023-02-23T05:37:38.987Z,17.33
2023-02-23T05:40:07.896Z,18.48
2023-02-23T05:42:38.490Z,17.83
2023-02-23T05:45:07.600Z,18.45
2023-02-23T05:47:38.799Z,19.90
2023-02-23T05:50:07.815Z,22.25
2023-02-23T05:52:39.069Z,23.38
2023-02-23T05:55:07.999Z,23.05
2023-02-23T05:57:37.978Z,25.92
2023-02-23T06:00:06.942Z,23.00
2023-02-23T06:02:36.518Z,23.42
2023-02-23T06:05:06.042Z,23.25
2023-02-23T06:07:34.636Z,26.42
2023-02-23T06:10:05.370Z,24.67
2023-02-23T06:12:33.788Z,25.73
2023-02-23T06:15:03.432Z,25.77
2023-02-23T06:17:32.750Z,28.08
2023-02-23T06:20:02.096Z,29.00
2023-02-23T06:22:30.376Z,28.80
2023-02-23T06:24:58.711Z,28.27
2023-02-23T06:27:27.190Z,26.92
2023-02-23T06:29:55.541Z,28.80
2023-02-23T06:32:25.247Z,27.35
2023-02-23T06:34:53.612Z,30.52
2023-02-23T06:37:23.884Z,31.05
2023-02-23T06:39:52.195Z,29.83
2023-02-23T06:42:20.514Z,31.17
2023-02-23T06:44:48.857Z,32.28
2023-02-23T06:47:17.232Z,33.97
2023-02-23T06:49:47.743Z,30.60
2023-02-23T06:52:16.411Z,40.78
2023-02-23T06:54:44.749Z,38.78
2023-02-23T06:57:13.305Z,33.80
2023-02-23T06:59:42.693Z,37.72
2023-02-23T07:02:12.475Z,30.48
2023-02-23T07:04:40.861Z,29.83
2023-02-23T07:07:10.548Z,31.95
2023-02-23T07:09:38.828Z,33.80
2023-02-23T07:12:07.299Z,31.63
2023-02-23T07:14:37.643Z,34.70
2023-02-23T07:17:06.094Z,35.42
2023-02-23T07:19:34.540Z,39.30
2023-02-23T07:22:02.916Z,36.92
2023-02-23T07:24:32.562Z,32.38
2023-02-23T07:27:00.851Z,35.63
2023-02-23T07:29:29.156Z,37.30
2023-02-23T07:31:57.761Z,33.70
2023-02-23T07:34:26.127Z,40.65
2023-02-23T07:36:54.415Z,36.60
2023-02-23T07:39:22.694Z,36.45
2023-02-23T07:41:52.316Z,38.92
2023-02-23T07:44:20.623Z,40.47
2023-02-23T07:46:49.591Z,38.50
2023-02-23T07:49:18.163Z,36.97
2023-02-23T07:51:46.512Z,37.42
2023-02-23T07:54:15.689Z,36.70
2023-02-23T07:56:44.160Z,40.53
2023-02-23T07:59:14.181Z,37.45
2023-02-23T08:01:42.489Z,41.10
2023-02-23T08:04:10.826Z,41.05
2023-02-23T08:06:39.182Z,44.22
2023-02-23T08:09:07.776Z,45.45
2023-02-23T08:11:36.478Z,44.08
2023-02-23T08:14:04.786Z,42.85
2023-02-23T08:16:35.494Z,45.33
2023-02-23T08:19:04.097Z,47.58
2023-02-23T08:21:32.675Z,47.10
2023-02-23T08:24:00.972Z,45.03
2023-02-23T08:26:29.309Z,46.35
2023-02-23T08:28:57.804Z,43.80
2023-02-23T08:31:27.587Z,46.13
2023-02-23T08:33:57.397Z,46.20
2023-02-23T08:36:25.845Z,48.47
2023-02-23T08:38:54.520Z,49.38
2023-02-23T08:41:23.034Z,45.17
2023-02-23T08:43:51.775Z,47.90
2023-02-23T08:46:20.615Z,45.67
2023-02-23T08:48:49.015Z,43.38
2023-02-23T08:51:19.281Z,45.10
2023-02-23T08:53:47.712Z,43.92
2023-02-23T08:56:16.373Z,44.60
2023-02-23T08:58:44.988Z,43.88
2023-02-23T09:01:21.639Z,43.13
2023-02-23T09:03:50.145Z,42.42
2023-02-23T09:06:20.823Z,42.58
2023-02-23T09:08:49.630Z,47.95
2023-02-23T09:11:18.386Z,43.42
2023-02-23T09:13:46.862Z,44.55
2023-02-23T09:16:15.247Z,40.28
2023-02-23T09:18:44.086Z,39.15
2023-02-23T09:21:19.300Z,43.08
2023-02-23T09:23:51.266Z,39.70
2023-02-23T09:26:19.886Z,39.10
2023-02-23T09:28:48.416Z,37.45
2023-02-23T09:31:19.311Z,36.63
2023-02-23T09:33:49.508Z,37.65
2023-02-23T09:36:18.686Z,36.80
2023-02-23T09:38:54.176Z,36.28
2023-02-23T09:41:36.615Z,36.42
2023-02-23T09:44:11.947Z,37.53
2023-02-23T09:46:45.893Z,34.50
2023-02-23T09:49:20.644Z,34.90
2023-02-23T09:51:55.376Z,34.80
2023-02-23T09:54:25.214Z,33.97
2023-02-23T09:56:58.403Z,32.33
2023-02-23T09:59:30.201Z,33.85
2023-02-23T10:02:05.553Z,36.60
2023-02-23T10:04:37.096Z,32.95
2023-02-23T10:07:10.635Z,31.85
2023-02-23T10:09:46.030Z,34.88
2023-02-23T10:12:21.599Z,31.23
2023-02-23T10:15:00.208Z,33.67
2023-02-23T10:17:36.328Z,30.02
2023-02-23T10:20:08.171Z,30.00
2023-02-23T10:22:37.285Z,33.47
2023-02-23T10:25:07.919Z,31.10
2023-02-23T10:27:42.974Z,33.10
2023-02-23T10:30:18.912Z,30.80
2023-02-23T10:32:55.297Z,30.58
2023-02-23T10:35:24.561Z,28.17
2023-02-23T10:37:53.756Z,28.20
2023-02-23T10:40:23.433Z,27.25
2023-02-23T10:42:53.192Z,25.27
2023-02-23T10:45:24.561Z,28.65
2023-02-23T10:47:55.053Z,26.38
2023-02-23T10:50:27.509Z,30.67
2023-02-23T10:52:57.173Z,28.75
2023-02-23T10:55:29.030Z,26.13
2023-02-23T10:58:06.325Z,28.15
2023-02-23T11:00:36.979Z,27.73
2023-02-23T11:03:19.068Z,29.25
2023-02-23T11:05:50.625Z,28.50
2023-02-23T11:08:23.997Z,23.88
2023-02-23T11:11:17.000Z,27.75
2023-02-23T11:13:47.800Z,24.60
2023-02-23T11:16:34.099Z,21.17
2023-02-23T11:19:42.774Z,21.60
2023-02-23T11:22:23.409Z,20.23
2023-02-23T11:25:02.586Z,22.10
2023-02-23T11:27:33.341Z,20.77
2023-02-23T11:30:15.582Z,19.98
2023-02-23T11:33:05.391Z,14.90
2023-02-23T11:36:01.843Z,15.18
2023-02-23T11:38:57.281Z,16.90
2023-02-23T11:41:25.985Z,15.50
2023-02-23T11:44:04.330Z,16.48
2023-02-23T11:46:49.082Z,15.75
2023-02-23T11:49:48.415Z,15.97
2023-02-23T11:52:26.978Z,14.30
2023-02-23T11:55:12.642Z,11.95
2023-02-23T11:57:59.198Z,12.77
2023-02-23T12:00:30.273Z,13.60
2023-02-23T12:03:02.205Z,12.70
2023-02-23T12:05:33.568Z,11.93
2023-02-23T12:08:06.620Z,14.98
2023-02-23T12:10:50.526Z,11.43
2023-02-23T12:13:59.198Z,10.73
2023-02-23T12:16:34.793Z,11.80
2023-02-23T12:19:06.134Z,10.35
2023-02-23T12:21:39.399Z,12.32
2023-02-23T12:24:14.996Z,11.07
2023-02-23T12:26:47.726Z,9.70
2023-02-23T12:29:19.941Z,12.77
2023-02-23T12:31:49.670Z,11.40
2023-02-23T12:34:23.150Z,11.00
2023-02-23T12:37:20.198Z,9.07
2023-02-23T12:39:53.328Z,8.93
2023-02-23T12:42:28.050Z,9.20
2023-02-23T12:44:57.341Z,8.63
2023-02-23T12:47:52.581Z,10.13
2023-02-23T12:50:32.037Z,9.75
2023-02-23T12:53:12.531Z,9.00
2023-02-23T12:55:49.292Z,10.68
2023-02-23T12:58:35.966Z,7.93
2023-02-23T13:01:17.553Z,14.70
2023-02-23T13:03:52.527Z,18.73
2023-02-23T13:09:31.488Z,23.80
2023-02-23T13:12:14.916Z,15.85
2023-02-23T13:14:48.281Z,16.80
2023-02-23T13:17:26.566Z,13.07
2023-02-23T13:20:00.779Z,10.38
2023-02-23T13:22:34.607Z,9.70
2023-02-23T13:25:05.271Z,8.30
2023-02-23T13:27:37.673Z,8.45
2023-02-23T13:30:10.308Z,8.20
2023-02-23T13:32:39.283Z,10.60
2023-02-23T13:35:11.185Z,10.38
2023-02-23T13:37:43.272Z,11.15
2023-02-23T13:40:26.455Z,10.18
2023-02-23T13:43:06.029Z,11.43
2023-02-23T13:45:54.940Z,11.88
2023-02-23T13:48:56.694Z,10.30
2023-02-23T13:51:52.350Z,10.35
2023-02-23T13:54:29.821Z,15.27
2023-02-23T13:57:08.397Z,14.23
2023-02-23T13:59:40.121Z,13.93
2023-02-23T14:02:24.987Z,15.30
2023-02-23T14:05:02.622Z,14.48
2023-02-23T14:07:32.248Z,13.90
2023-02-23T14:10:06.642Z,13.00
2023-02-23T14:12:42.364Z,14.18
2023-02-23T14:15:37.968Z,12.95
2023-02-23T14:18:07.311Z,13.30
2023-02-23T14:20:49.247Z,13.93
2023-02-23T14:23:43.336Z,13.60
2023-02-23T14:26:17.692Z,14.32
2023-02-23T14:29:11.997Z,12.75
2023-02-23T14:31:55.954Z,12.07
2023-02-23T14:34:50.643Z,11.73
2023-02-23T14:37:21.976Z,11.55
2023-02-23T14:39:53.650Z,11.75
2023-02-23T14:42:25.534Z,10.40
2023-02-23T14:44:54.403Z,11.02
2023-02-23T14:47:23.531Z,13.88
2023-02-23T14:49:53.266Z,11.45
2023-02-23T14:52:24.601Z,10.60
2023-02-23T14:54:53.347Z,11.55
2023-02-23T14:57:23.007Z,12.75
2023-02-23T14:59:56.334Z,14.13
2023-02-23T15:02:25.430Z,12.00
2023-02-23T15:04:53.899Z,13.65
2023-02-23T15:07:31.017Z,16.83
2023-02-23T15:10:00.576Z,15.77
2023-02-23T15:12:30.504Z,17.13
2023-02-23T15:15:01.950Z,15.80
2023-02-23T15:17:33.306Z,13.70
2023-02-23T15:20:15.461Z,12.82
2023-02-23T15:22:44.920Z,12.45
2023-02-23T15:25:16.362Z,13.23
2023-02-23T15:27:45.471Z,12.30
2023-02-23T15:30:23.872Z,13.73
2023-02-23T15:33:01.385Z,13.05
2023-02-23T15:35:30.490Z,12.65
2023-02-23T15:38:11.477Z,14.40
2023-02-23T15:40:47.001Z,14.43
2023-02-23T15:43:19.830Z,14.70
2023-02-23T15:45:51.594Z,13.97
2023-02-23T15:48:22.761Z,14.80
2023-02-23T15:50:53.236Z,15.40
2023-02-23T15:53:26.160Z,15.23
2023-02-23T15:56:00.772Z,16.88
2023-02-23T15:58:30.290Z,11.10
2023-02-23T16:01:01.394Z,15.27
2023-02-23T16:03:32.061Z,16.05
2023-02-23T16:06:04.575Z,17.08
2023-02-23T16:08:34.031Z,14.32
2023-02-23T16:11:06.043Z,15.32
2023-02-23T16:13:34.340Z,14.40
2023-02-23T16:16:10.049Z,15.32
2023-02-23T16:18:41.359Z,15.93
2023-02-23T16:21:10.442Z,16.25
2023-02-23T16:23:43.958Z,16.77
2023-02-23T16:26:14.389Z,15.35
2023-02-23T16:28:44.146Z,16.75
2023-02-23T16:31:25.939Z,19.75
2023-02-23T16:33:57.078Z,16.70
2023-02-23T16:36:26.123Z,16.23
2023-02-23T16:38:58.943Z,14.50
2023-02-23T16:41:31.150Z,13.27
2023-02-23T16:44:02.309Z,15.20
2023-02-23T16:46:33.475Z,16.85
2023-02-23T16:49:05.392Z,15.82
2023-02-23T16:51:37.333Z,16.13
2023-02-23T16:54:07.189Z,12.70
2023-02-23T16:56:38.620Z,19.95
2023-02-23T16:59:11.326Z,17.17
2023-02-23T17:01:42.228Z,17.38
2023-02-23T17:04:17.642Z,15.77
2023-02-23T17:06:55.067Z,16.30
2023-02-23T17:09:27.479Z,19.88
2023-02-23T17:12:01.106Z,15.65
2023-02-23T17:14:31.946Z,17.90
2023-02-23T17:17:04.056Z,16.75
2023-02-23T17:19:32.507Z,17.70
2023-02-23T17:22:03.754Z,14.63
2023-02-23T17:24:32.113Z,15.57
2023-02-23T17:27:02.128Z,15.10
2023-02-23T17:29:30.419Z,14.68
2023-02-23T17:32:03.286Z,15.15
2023-02-23T17:34:33.447Z,16.40
2023-02-23T17:37:01.972Z,16.33
2023-02-23T17:39:32.313Z,17.05
2023-02-23T17:42:00.808Z,16.25
2023-02-23T17:44:34.983Z,15.25
2023-02-23T17:47:08.106Z,13.77
2023-02-23T17:49:37.500Z,17.17
2023-02-23T17:52:05.940Z,16.63
2023-02-23T17:54:38.908Z,16.40
2023-02-23T17:57:08.341Z,16.13
2023-02-23T17:59:36.615Z,15.23
2023-02-23T18:02:08.748Z,19.30
2023-02-23T18:04:37.096Z,16.90
2023-02-23T18:07:05.524Z,17.08
2023-02-23T18:09:35.730Z,16.55
2023-02-23T18:12:05.117Z,17.27
2023-02-23T18:14:38.627Z,20.92
2023-02-23T18:17:12.946Z,16.55
2023-02-23T18:19:42.892Z,19.50
2023-02-23T18:22:12.329Z,16.73
2023-02-23T18:24:45.776Z,17.13
2023-02-23T18:27:15.933Z,18.35
2023-02-23T18:29:44.255Z,16.55
2023-02-23T18:32:16.423Z,18.42
2023-02-23T18:34:50.382Z,20.45
2023-02-23T18:40:24.929Z,17.85
2023-02-23T18:42:54.255Z,18.27
2023-02-23T18:45:25.627Z,19.73
2023-02-23T18:47:56.122Z,17.20
2023-02-23T18:50:26.245Z,19.00
2023-02-23T18:52:56.577Z,19.73
2023-02-23T18:55:25.582Z,19.88
2023-02-23T18:57:55.824Z,19.15
2023-02-23T19:00:26.744Z,17.58
2023-02-23T19:03:00.745Z,22.20
2023-02-23T19:05:29.116Z,19.85
2023-02-23T19:08:03.749Z,22.55
2023-02-23T19:10:32.181Z,21.92
2023-02-23T19:13:06.424Z,19.52
2023-02-23T19:15:35.687Z,19.25
2023-02-23T19:18:11.103Z,17.00
2023-02-23T19:20:39.743Z,16.73
2023-02-23T19:23:10.288Z,15.70
2023-02-23T19:25:38.655Z,19.20
2023-02-23T19:28:09.354Z,18.48
2023-02-23T19:30:44.114Z,21.80
2023-02-23T19:33:17.798Z,27.65
2023-02-23T19:38:16.761Z,21.77
2023-02-23T19:40:48.234Z,21.58
2023-02-23T19:43:16.722Z,18.63
2023-02-23T19:45:46.714Z,21.73
2023-02-23T19:48:16.712Z,16.95
2023-02-23T19:50:48.103Z,22.65
2023-02-23T19:53:24.017Z,19.77
2023-02-23T19:55:59.736Z,19.88
2023-02-23T19:58:28.236Z,20.70
2023-02-23T20:00:57.453Z,20.60
2023-02-23T20:03:28.504Z,20.13
2023-02-23T20:05:57.378Z,18.85
2023-02-23T20:08:25.911Z,16.83
2023-02-23T20:10:54.486Z,18.63
2023-02-23T20:13:23.539Z,16.25
2023-02-23T20:15:53.085Z,16.58
2023-02-23T20:18:25.033Z,19.17
2023-02-23T20:20:54.675Z,21.20
2023-02-23T20:23:22.990Z,18.90
2023-02-23T20:25:51.376Z,21.35
2023-02-23T20:28:21.821Z,19.38
2023-02-23T20:30:53.487Z,20.75
2023-02-23T20:33:22.104Z,17.58
2023-02-23T20:36:00.441Z,18.95
2023-02-23T20:38:32.307Z,22.25
2023-02-23T20:41:12.047Z,22.48
2023-02-23T20:43:40.759Z,20.48
2023-02-23T20:46:09.679Z,23.67
2023-02-23T20:48:38.212Z,21.00
2023-02-23T20:51:18.162Z,23.08
2023-02-23T20:53:52.912Z,23.00
2023-02-23T20:56:23.978Z,22.42
2023-02-23T20:58:54.415Z,23.42
2023-02-23T21:01:26.227Z,24.60
2023-02-23T21:03:56.507Z,25.45
2023-02-23T21:06:26.516Z,24.83
2023-02-23T21:09:02.833Z,23.75
2023-02-23T21:11:32.145Z,25.30
2023-02-23T21:14:00.817Z,24.23
2023-02-23T21:16:32.346Z,24.55
2023-02-23T21:19:05.018Z,22.75
2023-02-23T21:21:39.547Z,22.35
2023-02-23T21:24:07.927Z,23.40
2023-02-23T21:26:38.414Z,22.67
2023-02-23T21:29:11.571Z,24.63
2023-02-23T21:31:42.449Z,24.23
2023-02-23T21:34:12.061Z,24.40
2023-02-23T21:36:41.782Z,23.02
2023-02-23T21:39:10.193Z,23.42
2023-02-23T21:41:38.525Z,21.95
2023-02-23T21:44:07.538Z,23.45
2023-02-23T21:46:36.503Z,23.73
2023-02-23T21:49:09.640Z,22.83
2023-02-23T21:51:38.544Z,22.05
2023-02-23T21:54:10.069Z,21.98
2023-02-23T21:56:38.629Z,24.10
2023-02-23T21:59:08.216Z,23.70
2023-02-23T22:01:41.853Z,25.63
2023-02-23T22:04:11.137Z,23.30
2023-02-23T22:06:40.568Z,26.05
2023-02-23T22:09:15.950Z,21.45
2023-02-23T22:11:50.148Z,23.10
2023-02-23T22:14:22.239Z,22.23
2023-02-23T22:16:50.728Z,22.35
2023-02-23T22:19:21.929Z,22.95
2023-02-23T22:21:50.318Z,23.65
2023-02-23T22:24:20.214Z,24.98
2023-02-23T22:26:57.828Z,22.30
2023-02-23T22:29:27.621Z,18.13
2023-02-23T22:31:58.896Z,19.45
2023-02-23T22:34:32.125Z,20.63
2023-02-23T22:37:04.959Z,14.20
2023-02-23T22:39:43.247Z,17.02
2023-02-23T22:42:12.944Z,18.88
2023-02-23T22:44:44.068Z,23.35
2023-02-23T22:47:20.506Z,23.73
2023-02-23T22:49:49.159Z,22.88
2023-02-23T22:52:17.422Z,20.70
2023-02-23T22:54:55.111Z,22.60
2023-02-23T22:57:23.609Z,22.33
2023-02-23T23:00:00.130Z,24.35
2023-02-23T23:02:47.540Z,23.13
2023-02-23T23:05:16.244Z,24.05
2023-02-23T23:07:46.807Z,23.23
2023-02-23T23:10:17.632Z,26.02
2023-02-23T23:12:50.486Z,22.00
2023-02-23T23:15:20.097Z,24.25
2023-02-23T23:17:49.430Z,25.35
2023-02-23T23:20:50.010Z,24.38
2023-02-23T23:23:20.473Z,24.25
2023-02-23T23:25:52.001Z,23.38
2023-02-23T23:28:24.474Z,25.48
2023-02-23T23:30:52.975Z,24.17
2023-02-23T23:33:21.428Z,27.80
2023-02-23T23:35:53.312Z,26.13
2023-02-23T23:38:24.474Z,28.35
2023-02-23T23:41:07.949Z,24.23
2023-02-23T23:43:48.079Z,26.90
2023-02-23T23:46:17.953Z,22.65
2023-02-23T23:48:46.470Z,22.63
2023-02-23T23:51:15.231Z,21.73
2023-02-23T23:53:44.962Z,27.45
2023-02-23T23:56:15.513Z,23.05
2023-02-23T23:58:43.893Z,25.23
